sensor_id;sensor_type;location;lat;lon;timestamp;P1;durP1;ratioP1;P2;durP2;ratioP2
67272;SDS011;54190;49.770;9.250;2023-07-08T00:00:17;11.87;;;9.03;;
67272;SDS011;54190;49.770;9.250;2023-07-08T00:02:46;13.20;;;9.73;;
67272;SDS011;54190;49.770;9.250;2023-07-08T00:05:12;12.73;;;9.17;;
67272;SDS011;54190;49.770;9.250;2023-07-08T00:07:40;11.70;;;8.70;;
67272;SDS011;54190;49.770;9.250;2023-07-08T00:12:41;15.80;;;8.80;;
67272;SDS011;54190;49.770;9.250;2023-07-08T00:15:08;13.63;;;8.70;;
67272;SDS011;54190;49.770;9.250;2023-07-08T00:17:34;14.40;;;9.00;;
67272;SDS011;54190;49.770;9.250;2023-07-08T00:20:00;12.87;;;8.80;;
67272;SDS011;54190;49.770;9.250;2023-07-08T00:22:26;12.30;;;9.03;;
67272;SDS011;54190;49.770;9.250;2023-07-08T00:24:51;13.50;;;9.47;;
67272;SDS011;54190;49.770;9.250;2023-07-08T00:27:17;12.40;;;8.80;;
67272;SDS011;54190;49.770;9.250;2023-07-08T00:29:43;12.80;;;9.03;;
67272;SDS011;54190;49.770;9.250;2023-07-08T00:32:10;13.20;;;9.03;;
67272;SDS011;54190;49.770;9.250;2023-07-08T00:34:37;12.87;;;9.53;;
67272;SDS011;54190;49.770;9.250;2023-07-08T00:37:03;13.43;;;9.10;;
67272;SDS011;54190;49.770;9.250;2023-07-08T00:39:31;15.00;;;9.37;;
67272;SDS011;54190;49.770;9.250;2023-07-08T00:41:58;20.43;;;8.93;;
67272;SDS011;54190;49.770;9.250;2023-07-08T00:44:25;15.10;;;9.97;;
67272;SDS011;54190;49.770;9.250;2023-07-08T00:47:04;15.03;;;9.40;;
67272;SDS011;54190;49.770;9.250;2023-07-08T00:52:28;12.20;;;8.77;;
67272;SDS011;54190;49.770;9.250;2023-07-08T00:54:55;13.30;;;8.90;;
67272;SDS011;54190;49.770;9.250;2023-07-08T00:57:27;16.13;;;8.53;;
67272;SDS011;54190;49.770;9.250;2023-07-08T00:59:57;12.60;;;9.20;;
67272;SDS011;54190;49.770;9.250;2023-07-08T01:02:28;13.30;;;8.70;;
67272;SDS011;54190;49.770;9.250;2023-07-08T01:04:58;14.23;;;9.40;;
67272;SDS011;54190;49.770;9.250;2023-07-08T01:07:29;15.00;;;9.30;;
67272;SDS011;54190;49.770;9.250;2023-07-08T01:10:02;17.30;;;8.73;;
67272;SDS011;54190;49.770;9.250;2023-07-08T01:12:32;13.23;;;8.90;;
67272;SDS011;54190;49.770;9.250;2023-07-08T01:15:02;16.47;;;9.93;;
67272;SDS011;54190;49.770;9.250;2023-07-08T01:17:29;12.80;;;9.20;;
67272;SDS011;54190;49.770;9.250;2023-07-08T01:19:59;11.70;;;8.40;;
67272;SDS011;54190;49.770;9.250;2023-07-08T01:22:25;15.07;;;9.87;;
67272;SDS011;54190;49.770;9.250;2023-07-08T01:24:57;12.27;;;9.10;;
67272;SDS011;54190;49.770;9.250;2023-07-08T01:27:30;13.37;;;9.30;;
67272;SDS011;54190;49.770;9.250;2023-07-08T01:29:59;15.40;;;10.00;;
67272;SDS011;54190;49.770;9.250;2023-07-08T01:32:27;13.60;;;9.13;;
67272;SDS011;54190;49.770;9.250;2023-07-08T01:34:54;14.17;;;9.40;;
67272;SDS011;54190;49.770;9.250;2023-07-08T01:37:29;14.47;;;9.33;;
67272;SDS011;54190;49.770;9.250;2023-07-08T01:39:56;14.50;;;10.10;;
67272;SDS011;54190;49.770;9.250;2023-07-08T01:42:22;14.97;;;9.50;;
67272;SDS011;54190;49.770;9.250;2023-07-08T01:44:48;16.90;;;9.27;;
67272;SDS011;54190;49.770;9.250;2023-07-08T01:47:15;16.10;;;9.60;;
67272;SDS011;54190;49.770;9.250;2023-07-08T01:49:44;13.53;;;9.83;;
67272;SDS011;54190;49.770;9.250;2023-07-08T01:52:12;13.43;;;8.70;;
67272;SDS011;54190;49.770;9.250;2023-07-08T01:54:39;11.57;;;8.60;;
67272;SDS011;54190;49.770;9.250;2023-07-08T01:57:05;13.47;;;9.23;;
67272;SDS011;54190;49.770;9.250;2023-07-08T01:59:30;12.80;;;9.17;;
67272;SDS011;54190;49.770;9.250;2023-07-08T02:01:56;12.80;;;9.13;;
67272;SDS011;54190;49.770;9.250;2023-07-08T02:04:23;15.20;;;9.83;;
67272;SDS011;54190;49.770;9.250;2023-07-08T02:06:54;15.70;;;8.60;;
67272;SDS011;54190;49.770;9.250;2023-07-08T02:09:20;14.40;;;9.70;;
67272;SDS011;54190;49.770;9.250;2023-07-08T02:11:46;12.73;;;9.27;;
67272;SDS011;54190;49.770;9.250;2023-07-08T02:14:12;13.87;;;9.20;;
67272;SDS011;54190;49.770;9.250;2023-07-08T02:16:38;12.20;;;8.27;;
67272;SDS011;54190;49.770;9.250;2023-07-08T02:19:03;16.67;;;9.43;;
67272;SDS011;54190;49.770;9.250;2023-07-08T02:21:30;13.73;;;9.40;;
67272;SDS011;54190;49.770;9.250;2023-07-08T02:23:56;13.17;;;9.03;;
67272;SDS011;54190;49.770;9.250;2023-07-08T02:26:22;14.00;;;9.50;;
67272;SDS011;54190;49.770;9.250;2023-07-08T02:28:48;12.30;;;9.33;;
67272;SDS011;54190;49.770;9.250;2023-07-08T02:31:14;12.13;;;8.83;;
67272;SDS011;54190;49.770;9.250;2023-07-08T02:33:40;12.40;;;8.60;;
67272;SDS011;54190;49.770;9.250;2023-07-08T02:36:05;12.90;;;9.23;;
67272;SDS011;54190;49.770;9.250;2023-07-08T02:38:31;13.93;;;9.10;;
67272;SDS011;54190;49.770;9.250;2023-07-08T02:40:57;13.37;;;9.57;;
67272;SDS011;54190;49.770;9.250;2023-07-08T02:43:23;12.20;;;8.60;;
67272;SDS011;54190;49.770;9.250;2023-07-08T02:45:51;15.47;;;9.97;;
67272;SDS011;54190;49.770;9.250;2023-07-08T02:48:18;13.33;;;9.20;;
67272;SDS011;54190;49.770;9.250;2023-07-08T02:50:44;12.50;;;8.57;;
67272;SDS011;54190;49.770;9.250;2023-07-08T02:53:10;14.17;;;9.53;;
67272;SDS011;54190;49.770;9.250;2023-07-08T02:55:36;15.23;;;8.23;;
67272;SDS011;54190;49.770;9.250;2023-07-08T02:58:01;12.10;;;9.03;;
67272;SDS011;54190;49.770;9.250;2023-07-08T03:00:27;13.67;;;8.63;;
67272;SDS011;54190;49.770;9.250;2023-07-08T03:02:53;12.40;;;8.63;;
67272;SDS011;54190;49.770;9.250;2023-07-08T03:05:18;12.87;;;8.43;;
67272;SDS011;54190;49.770;9.250;2023-07-08T03:07:44;11.43;;;8.90;;
67272;SDS011;54190;49.770;9.250;2023-07-08T03:10:10;12.23;;;8.20;;
67272;SDS011;54190;49.770;9.250;2023-07-08T03:12:35;13.93;;;8.60;;
67272;SDS011;54190;49.770;9.250;2023-07-08T03:15:01;13.40;;;9.83;;
67272;SDS011;54190;49.770;9.250;2023-07-08T03:17:27;12.20;;;8.60;;
67272;SDS011;54190;49.770;9.250;2023-07-08T03:19:53;12.90;;;8.50;;
67272;SDS011;54190;49.770;9.250;2023-07-08T03:22:19;12.87;;;9.23;;
67272;SDS011;54190;49.770;9.250;2023-07-08T03:24:44;12.93;;;9.00;;
67272;SDS011;54190;49.770;9.250;2023-07-08T03:27:14;13.10;;;9.10;;
67272;SDS011;54190;49.770;9.250;2023-07-08T03:29:41;13.03;;;8.40;;
67272;SDS011;54190;49.770;9.250;2023-07-08T03:32:09;14.33;;;9.00;;
67272;SDS011;54190;49.770;9.250;2023-07-08T03:34:36;12.80;;;8.63;;
67272;SDS011;54190;49.770;9.250;2023-07-08T03:37:02;13.43;;;9.10;;
67272;SDS011;54190;49.770;9.250;2023-07-08T03:39:28;14.03;;;8.90;;
67272;SDS011;54190;49.770;9.250;2023-07-08T03:41:56;16.33;;;9.57;;
67272;SDS011;54190;49.770;9.250;2023-07-08T03:44:22;15.30;;;9.23;;
67272;SDS011;54190;49.770;9.250;2023-07-08T03:46:48;11.53;;;8.20;;
67272;SDS011;54190;49.770;9.250;2023-07-08T03:49:17;13.73;;;9.43;;
67272;SDS011;54190;49.770;9.250;2023-07-08T03:51:52;13.43;;;9.00;;
67272;SDS011;54190;49.770;9.250;2023-07-08T03:54:22;15.07;;;8.97;;
67272;SDS011;54190;49.770;9.250;2023-07-08T03:56:50;14.00;;;9.20;;
67272;SDS011;54190;49.770;9.250;2023-07-08T03:59:16;11.70;;;7.83;;
67272;SDS011;54190;49.770;9.250;2023-07-08T04:01:44;13.17;;;9.43;;
67272;SDS011;54190;49.770;9.250;2023-07-08T04:04:11;13.23;;;8.73;;
67272;SDS011;54190;49.770;9.250;2023-07-08T04:06:38;12.57;;;8.17;;
67272;SDS011;54190;49.770;9.250;2023-07-08T04:09:05;12.70;;;7.90;;
67272;SDS011;54190;49.770;9.250;2023-07-08T04:11:32;12.67;;;8.70;;
67272;SDS011;54190;49.770;9.250;2023-07-08T04:13:57;12.13;;;8.30;;
67272;SDS011;54190;49.770;9.250;2023-07-08T04:16:24;14.30;;;9.10;;
67272;SDS011;54190;49.770;9.250;2023-07-08T04:18:53;15.30;;;10.00;;
67272;SDS011;54190;49.770;9.250;2023-07-08T04:21:20;12.50;;;8.97;;
67272;SDS011;54190;49.770;9.250;2023-07-08T04:23:47;14.30;;;8.87;;
67272;SDS011;54190;49.770;9.250;2023-07-08T04:26:13;10.97;;;7.90;;
67272;SDS011;54190;49.770;9.250;2023-07-08T04:28:39;10.53;;;7.17;;
67272;SDS011;54190;49.770;9.250;2023-07-08T04:31:06;12.77;;;8.70;;
67272;SDS011;54190;49.770;9.250;2023-07-08T04:33:31;12.70;;;8.90;;
67272;SDS011;54190;49.770;9.250;2023-07-08T04:35:57;11.30;;;7.60;;
67272;SDS011;54190;49.770;9.250;2023-07-08T04:38:23;12.50;;;8.17;;
67272;SDS011;54190;49.770;9.250;2023-07-08T04:40:51;12.93;;;7.83;;
67272;SDS011;54190;49.770;9.250;2023-07-08T04:43:18;13.70;;;8.27;;
67272;SDS011;54190;49.770;9.250;2023-07-08T04:45:47;11.13;;;7.50;;
67272;SDS011;54190;49.770;9.250;2023-07-08T04:48:15;10.97;;;7.73;;
67272;SDS011;54190;49.770;9.250;2023-07-08T04:50:45;9.50;;;7.67;;
67272;SDS011;54190;49.770;9.250;2023-07-08T04:53:12;12.23;;;7.33;;
67272;SDS011;54190;49.770;9.250;2023-07-08T04:55:39;13.27;;;7.47;;
67272;SDS011;54190;49.770;9.250;2023-07-08T04:58:09;16.33;;;8.83;;
67272;SDS011;54190;49.770;9.250;2023-07-08T05:00:35;13.10;;;8.10;;
67272;SDS011;54190;49.770;9.250;2023-07-08T05:03:01;15.53;;;9.23;;
67272;SDS011;54190;49.770;9.250;2023-07-08T05:05:26;10.73;;;7.90;;
67272;SDS011;54190;49.770;9.250;2023-07-08T05:07:52;10.73;;;7.73;;
67272;SDS011;54190;49.770;9.250;2023-07-08T05:10:18;10.77;;;7.30;;
67272;SDS011;54190;49.770;9.250;2023-07-08T05:12:45;10.67;;;7.60;;
67272;SDS011;54190;49.770;9.250;2023-07-08T05:15:12;10.20;;;7.63;;
67272;SDS011;54190;49.770;9.250;2023-07-08T05:17:38;10.60;;;7.80;;
67272;SDS011;54190;49.770;9.250;2023-07-08T05:20:05;10.27;;;7.50;;
67272;SDS011;54190;49.770;9.250;2023-07-08T05:22:32;11.60;;;7.63;;
67272;SDS011;54190;49.770;9.250;2023-07-08T05:24:58;13.63;;;7.53;;
67272;SDS011;54190;49.770;9.250;2023-07-08T05:27:24;10.93;;;7.47;;
67272;SDS011;54190;49.770;9.250;2023-07-08T05:29:50;11.37;;;7.93;;
67272;SDS011;54190;49.770;9.250;2023-07-08T05:32:16;10.57;;;7.37;;
67272;SDS011;54190;49.770;9.250;2023-07-08T05:34:42;10.20;;;7.73;;
67272;SDS011;54190;49.770;9.250;2023-07-08T05:37:09;12.77;;;7.57;;
67272;SDS011;54190;49.770;9.250;2023-07-08T05:39:35;9.67;;;6.93;;
67272;SDS011;54190;49.770;9.250;2023-07-08T05:42:01;10.17;;;7.33;;
67272;SDS011;54190;49.770;9.250;2023-07-08T05:44:27;9.80;;;7.20;;
67272;SDS011;54190;49.770;9.250;2023-07-08T05:46:53;10.90;;;7.63;;
67272;SDS011;54190;49.770;9.250;2023-07-08T05:49:18;10.93;;;7.80;;
67272;SDS011;54190;49.770;9.250;2023-07-08T05:51:44;11.57;;;7.20;;
67272;SDS011;54190;49.770;9.250;2023-07-08T05:54:10;9.37;;;6.87;;
67272;SDS011;54190;49.770;9.250;2023-07-08T05:56:36;17.97;;;7.50;;
67272;SDS011;54190;49.770;9.250;2023-07-08T05:59:02;13.50;;;7.03;;
67272;SDS011;54190;49.770;9.250;2023-07-08T06:01:28;10.53;;;7.43;;
67272;SDS011;54190;49.770;9.250;2023-07-08T06:03:54;12.30;;;7.93;;
67272;SDS011;54190;49.770;9.250;2023-07-08T06:06:23;11.17;;;6.87;;
67272;SDS011;54190;49.770;9.250;2023-07-08T06:08:49;11.50;;;7.50;;
67272;SDS011;54190;49.770;9.250;2023-07-08T06:11:15;9.90;;;7.57;;
67272;SDS011;54190;49.770;9.250;2023-07-08T06:13:41;12.17;;;7.50;;
67272;SDS011;54190;49.770;9.250;2023-07-08T06:16:07;7.60;;;6.00;;
67272;SDS011;54190;49.770;9.250;2023-07-08T06:18:33;8.87;;;6.27;;
67272;SDS011;54190;49.770;9.250;2023-07-08T06:20:58;10.33;;;6.13;;
67272;SDS011;54190;49.770;9.250;2023-07-08T06:23:25;9.97;;;7.20;;
67272;SDS011;54190;49.770;9.250;2023-07-08T06:25:51;6.93;;;5.67;;
67272;SDS011;54190;49.770;9.250;2023-07-08T06:28:17;10.50;;;6.37;;
67272;SDS011;54190;49.770;9.250;2023-07-08T06:30:43;7.60;;;5.67;;
67272;SDS011;54190;49.770;9.250;2023-07-08T06:33:09;8.43;;;6.20;;
67272;SDS011;54190;49.770;9.250;2023-07-08T06:35:36;7.37;;;5.90;;
67272;SDS011;54190;49.770;9.250;2023-07-08T06:38:03;8.20;;;5.83;;
67272;SDS011;54190;49.770;9.250;2023-07-08T06:40:29;8.47;;;6.10;;
67272;SDS011;54190;49.770;9.250;2023-07-08T06:42:55;10.17;;;6.60;;
67272;SDS011;54190;49.770;9.250;2023-07-08T06:45:39;8.40;;;5.70;;
67272;SDS011;54190;49.770;9.250;2023-07-08T06:48:06;6.93;;;5.73;;
67272;SDS011;54190;49.770;9.250;2023-07-08T06:50:31;10.83;;;6.20;;
67272;SDS011;54190;49.770;9.250;2023-07-08T06:52:57;9.00;;;6.40;;
67272;SDS011;54190;49.770;9.250;2023-07-08T06:55:23;9.23;;;5.60;;
67272;SDS011;54190;49.770;9.250;2023-07-08T06:57:49;7.07;;;5.50;;
67272;SDS011;54190;49.770;9.250;2023-07-08T07:00:14;12.60;;;6.17;;
67272;SDS011;54190;49.770;9.250;2023-07-08T07:02:40;8.77;;;6.10;;
67272;SDS011;54190;49.770;9.250;2023-07-08T07:05:06;8.27;;;5.70;;
67272;SDS011;54190;49.770;9.250;2023-07-08T07:07:32;8.50;;;5.80;;
67272;SDS011;54190;49.770;9.250;2023-07-08T07:09:59;9.40;;;6.30;;
67272;SDS011;54190;49.770;9.250;2023-07-08T07:12:25;8.27;;;6.53;;
67272;SDS011;54190;49.770;9.250;2023-07-08T07:14:52;7.40;;;6.07;;
67272;SDS011;54190;49.770;9.250;2023-07-08T07:17:21;7.77;;;6.00;;
67272;SDS011;54190;49.770;9.250;2023-07-08T07:19:48;7.30;;;5.97;;
67272;SDS011;54190;49.770;9.250;2023-07-08T07:22:14;8.37;;;6.30;;
67272;SDS011;54190;49.770;9.250;2023-07-08T07:24:40;8.90;;;6.47;;
67272;SDS011;54190;49.770;9.250;2023-07-08T07:27:06;11.73;;;6.40;;
67272;SDS011;54190;49.770;9.250;2023-07-08T07:29:43;7.37;;;6.07;;
67272;SDS011;54190;49.770;9.250;2023-07-08T07:32:15;7.60;;;6.37;;
67272;SDS011;54190;49.770;9.250;2023-07-08T07:34:42;7.80;;;5.87;;
67272;SDS011;54190;49.770;9.250;2023-07-08T07:37:12;8.57;;;6.43;;
67272;SDS011;54190;49.770;9.250;2023-07-08T07:39:40;8.73;;;6.40;;
67272;SDS011;54190;49.770;9.250;2023-07-08T07:42:07;8.90;;;6.27;;
67272;SDS011;54190;49.770;9.250;2023-07-08T07:44:33;7.97;;;6.57;;
67272;SDS011;54190;49.770;9.250;2023-07-08T07:46:58;8.83;;;6.53;;
67272;SDS011;54190;49.770;9.250;2023-07-08T07:49:24;8.90;;;6.20;;
67272;SDS011;54190;49.770;9.250;2023-07-08T07:51:50;7.53;;;6.40;;
67272;SDS011;54190;49.770;9.250;2023-07-08T07:54:16;7.83;;;6.00;;
67272;SDS011;54190;49.770;9.250;2023-07-08T07:56:41;8.60;;;5.67;;
67272;SDS011;54190;49.770;9.250;2023-07-08T07:59:07;8.17;;;5.13;;
67272;SDS011;54190;49.770;9.250;2023-07-08T08:01:33;10.13;;;6.70;;
67272;SDS011;54190;49.770;9.250;2023-07-08T08:03:59;8.77;;;6.13;;
67272;SDS011;54190;49.770;9.250;2023-07-08T08:06:24;12.60;;;5.93;;
67272;SDS011;54190;49.770;9.250;2023-07-08T08:08:50;6.30;;;5.33;;
67272;SDS011;54190;49.770;9.250;2023-07-08T08:11:16;7.27;;;5.67;;
67272;SDS011;54190;49.770;9.250;2023-07-08T08:13:42;6.50;;;5.73;;
67272;SDS011;54190;49.770;9.250;2023-07-08T08:16:08;8.07;;;5.87;;
67272;SDS011;54190;49.770;9.250;2023-07-08T08:18:33;9.13;;;6.27;;
67272;SDS011;54190;49.770;9.250;2023-07-08T08:20:59;7.20;;;5.90;;
67272;SDS011;54190;49.770;9.250;2023-07-08T08:23:25;8.80;;;6.40;;
67272;SDS011;54190;49.770;9.250;2023-07-08T08:25:51;7.80;;;6.27;;
67272;SDS011;54190;49.770;9.250;2023-07-08T08:28:16;7.30;;;5.53;;
67272;SDS011;54190;49.770;9.250;2023-07-08T08:30:46;11.47;;;6.00;;
67272;SDS011;54190;49.770;9.250;2023-07-08T08:33:16;10.20;;;6.00;;
67272;SDS011;54190;49.770;9.250;2023-07-08T08:35:42;7.60;;;5.73;;
67272;SDS011;54190;49.770;9.250;2023-07-08T08:38:08;8.33;;;6.13;;
67272;SDS011;54190;49.770;9.250;2023-07-08T08:40:33;8.07;;;6.30;;
67272;SDS011;54190;49.770;9.250;2023-07-08T08:48:15;7.30;;;5.90;;
67272;SDS011;54190;49.770;9.250;2023-07-08T08:50:51;9.27;;;6.20;;
67272;SDS011;54190;49.770;9.250;2023-07-08T08:53:20;9.30;;;6.60;;
67272;SDS011;54190;49.770;9.250;2023-07-08T08:57:34;7.33;;;6.10;;
67272;SDS011;54190;49.770;9.250;2023-07-08T09:00:13;6.80;;;6.07;;
67272;SDS011;54190;49.770;9.250;2023-07-08T09:03:17;7.10;;;6.03;;
67272;SDS011;54190;49.770;9.250;2023-07-08T09:05:41;8.73;;;6.53;;
67272;SDS011;54190;49.770;9.250;2023-07-08T09:08:23;8.10;;;6.83;;
67272;SDS011;54190;49.770;9.250;2023-07-08T09:10:58;7.80;;;6.23;;
67272;SDS011;54190;49.770;9.250;2023-07-08T09:16:05;9.63;;;6.87;;
67272;SDS011;54190;49.770;9.250;2023-07-08T09:18:52;10.87;;;6.23;;
67272;SDS011;54190;49.770;9.250;2023-07-08T09:21:21;8.13;;;6.30;;
67272;SDS011;54190;49.770;9.250;2023-07-08T09:23:52;7.27;;;6.20;;
67272;SDS011;54190;49.770;9.250;2023-07-08T09:26:25;8.90;;;6.47;;
67272;SDS011;54190;49.770;9.250;2023-07-08T09:28:54;7.70;;;6.03;;
67272;SDS011;54190;49.770;9.250;2023-07-08T09:31:23;10.47;;;6.63;;
67272;SDS011;54190;49.770;9.250;2023-07-08T09:33:52;7.60;;;6.10;;
67272;SDS011;54190;49.770;9.250;2023-07-08T09:36:28;6.87;;;6.17;;
67272;SDS011;54190;49.770;9.250;2023-07-08T09:38:53;7.07;;;6.37;;
67272;SDS011;54190;49.770;9.250;2023-07-08T09:41:32;8.50;;;6.87;;
67272;SDS011;54190;49.770;9.250;2023-07-08T09:46:35;7.53;;;6.53;;
67272;SDS011;54190;49.770;9.250;2023-07-08T09:49:09;8.30;;;6.67;;
67272;SDS011;54190;49.770;9.250;2023-07-08T09:51:55;8.60;;;6.90;;
67272;SDS011;54190;49.770;9.250;2023-07-08T09:54:22;7.77;;;7.00;;
67272;SDS011;54190;49.770;9.250;2023-07-08T09:59:29;7.90;;;6.37;;
67272;SDS011;54190;49.770;9.250;2023-07-08T10:02:01;7.80;;;7.00;;
67272;SDS011;54190;49.770;9.250;2023-07-08T10:04:36;7.30;;;6.20;;
67272;SDS011;54190;49.770;9.250;2023-07-08T10:07:02;9.50;;;6.17;;
67272;SDS011;54190;49.770;9.250;2023-07-08T10:09:37;7.33;;;6.47;;
67272;SDS011;54190;49.770;9.250;2023-07-08T10:12:03;7.87;;;6.30;;
67272;SDS011;54190;49.770;9.250;2023-07-08T10:14:37;8.90;;;6.10;;
67272;SDS011;54190;49.770;9.250;2023-07-08T10:17:13;9.10;;;6.70;;
67272;SDS011;54190;49.770;9.250;2023-07-08T10:19:41;9.40;;;6.30;;
67272;SDS011;54190;49.770;9.250;2023-07-08T10:22:11;7.50;;;6.70;;
67272;SDS011;54190;49.770;9.250;2023-07-08T10:25:02;7.53;;;6.00;;
67272;SDS011;54190;49.770;9.250;2023-07-08T10:27:57;7.20;;;6.50;;
67272;SDS011;54190;49.770;9.250;2023-07-08T10:30:48;10.93;;;6.53;;
67272;SDS011;54190;49.770;9.250;2023-07-08T10:38:44;8.43;;;7.00;;
67272;SDS011;54190;49.770;9.250;2023-07-08T10:41:31;7.30;;;6.60;;
67272;SDS011;54190;49.770;9.250;2023-07-08T10:55:58;8.73;;;6.80;;
67272;SDS011;54190;49.770;9.250;2023-07-08T11:07:09;7.57;;;6.37;;
67272;SDS011;54190;49.770;9.250;2023-07-08T11:09:44;8.73;;;6.30;;
67272;SDS011;54190;49.770;9.250;2023-07-08T11:15:11;7.70;;;6.40;;
67272;SDS011;54190;49.770;9.250;2023-07-08T11:23:19;7.73;;;6.13;;
67272;SDS011;54190;49.770;9.250;2023-07-08T11:25:52;9.63;;;6.60;;
67272;SDS011;54190;49.770;9.250;2023-07-08T11:28:26;7.80;;;6.20;;
67272;SDS011;54190;49.770;9.250;2023-07-08T11:30:52;7.50;;;6.30;;
67272;SDS011;54190;49.770;9.250;2023-07-08T11:33:19;11.47;;;6.60;;
67272;SDS011;54190;49.770;9.250;2023-07-08T11:35:49;10.70;;;6.70;;
67272;SDS011;54190;49.770;9.250;2023-07-08T11:38:20;7.80;;;6.10;;
67272;SDS011;54190;49.770;9.250;2023-07-08T11:40:57;11.73;;;6.10;;
67272;SDS011;54190;49.770;9.250;2023-07-08T11:43:26;9.50;;;6.20;;
67272;SDS011;54190;49.770;9.250;2023-07-08T11:46:02;6.93;;;6.23;;
67272;SDS011;54190;49.770;9.250;2023-07-08T11:48:32;6.73;;;5.73;;
67272;SDS011;54190;49.770;9.250;2023-07-08T11:51:07;6.90;;;6.07;;
67272;SDS011;54190;49.770;9.250;2023-07-08T11:53:47;9.33;;;5.70;;
67272;SDS011;54190;49.770;9.250;2023-07-08T11:56:29;7.50;;;5.70;;
67272;SDS011;54190;49.770;9.250;2023-07-08T11:59:33;8.27;;;6.37;;
67272;SDS011;54190;49.770;9.250;2023-07-08T12:02:03;6.90;;;5.70;;
67272;SDS011;54190;49.770;9.250;2023-07-08T12:04:58;13.30;;;5.90;;
67272;SDS011;54190;49.770;9.250;2023-07-08T12:07:41;7.77;;;5.80;;
67272;SDS011;54190;49.770;9.250;2023-07-08T12:10:23;9.23;;;6.60;;
67272;SDS011;54190;49.770;9.250;2023-07-08T12:12:53;10.13;;;6.30;;
67272;SDS011;54190;49.770;9.250;2023-07-08T12:15:23;7.30;;;6.33;;
67272;SDS011;54190;49.770;9.250;2023-07-08T12:17:59;8.33;;;6.40;;
67272;SDS011;54190;49.770;9.250;2023-07-08T12:20:32;8.70;;;6.47;;
67272;SDS011;54190;49.770;9.250;2023-07-08T12:23:00;10.50;;;6.30;;
67272;SDS011;54190;49.770;9.250;2023-07-08T12:25:35;7.10;;;6.40;;
67272;SDS011;54190;49.770;9.250;2023-07-08T12:28:01;8.73;;;6.40;;
67272;SDS011;54190;49.770;9.250;2023-07-08T12:30:28;6.63;;;5.93;;
67272;SDS011;54190;49.770;9.250;2023-07-08T12:32:55;8.50;;;6.43;;
67272;SDS011;54190;49.770;9.250;2023-07-08T12:35:32;9.43;;;5.20;;
67272;SDS011;54190;49.770;9.250;2023-07-08T12:37:59;6.13;;;5.47;;
67272;SDS011;54190;49.770;9.250;2023-07-08T12:40:40;6.80;;;6.10;;
67272;SDS011;54190;49.770;9.250;2023-07-08T12:43:07;6.80;;;6.10;;
67272;SDS011;54190;49.770;9.250;2023-07-08T12:45:35;7.80;;;5.73;;
67272;SDS011;54190;49.770;9.250;2023-07-08T12:48:02;7.10;;;5.90;;
67272;SDS011;54190;49.770;9.250;2023-07-08T12:50:28;6.97;;;6.00;;
67272;SDS011;54190;49.770;9.250;2023-07-08T12:52:54;8.00;;;6.20;;
67272;SDS011;54190;49.770;9.250;2023-07-08T12:55:21;6.70;;;5.40;;
67272;SDS011;54190;49.770;9.250;2023-07-08T12:57:48;8.20;;;5.90;;
67272;SDS011;54190;49.770;9.250;2023-07-08T13:00:20;7.03;;;5.37;;
67272;SDS011;54190;49.770;9.250;2023-07-08T13:02:59;6.00;;;5.17;;
67272;SDS011;54190;49.770;9.250;2023-07-08T13:05:30;6.00;;;5.30;;
67272;SDS011;54190;49.770;9.250;2023-07-08T13:07:56;7.90;;;4.80;;
67272;SDS011;54190;49.770;9.250;2023-07-08T13:10:24;7.80;;;5.10;;
67272;SDS011;54190;49.770;9.250;2023-07-08T13:12:55;6.93;;;6.17;;
67272;SDS011;54190;49.770;9.250;2023-07-08T13:15:34;7.37;;;5.73;;
67272;SDS011;54190;49.770;9.250;2023-07-08T13:18:05;8.20;;;5.60;;
67272;SDS011;54190;49.770;9.250;2023-07-08T13:20:42;7.93;;;5.60;;
67272;SDS011;54190;49.770;9.250;2023-07-08T13:23:14;6.65;;;5.07;;
67272;SDS011;54190;49.770;9.250;2023-07-08T13:25:40;6.00;;;5.40;;
67272;SDS011;54190;49.770;9.250;2023-07-08T13:30:56;8.33;;;5.20;;
67272;SDS011;54190;49.770;9.250;2023-07-08T13:33:28;6.40;;;5.27;;
67272;SDS011;54190;49.770;9.250;2023-07-08T13:36:00;7.65;;;5.55;;
67272;SDS011;54190;49.770;9.250;2023-07-08T13:38:30;7.13;;;5.13;;
67272;SDS011;54190;49.770;9.250;2023-07-08T13:40:59;7.40;;;5.30;;
67272;SDS011;54190;49.770;9.250;2023-07-08T13:43:30;7.68;;;5.07;;
67272;SDS011;54190;49.770;9.250;2023-07-08T13:45:57;5.00;;;4.50;;
67272;SDS011;54190;49.770;9.250;2023-07-08T13:48:28;9.32;;;4.78;;
67272;SDS011;54190;49.770;9.250;2023-07-08T13:51:06;6.43;;;5.30;;
67272;SDS011;54190;49.770;9.250;2023-07-08T13:53:43;6.88;;;4.90;;
67272;SDS011;54190;49.770;9.250;2023-07-08T13:58:51;6.75;;;4.85;;
67272;SDS011;54190;49.770;9.250;2023-07-08T14:01:25;7.82;;;4.60;;
67272;SDS011;54190;49.770;9.250;2023-07-08T14:03:51;5.78;;;4.50;;
67272;SDS011;54190;49.770;9.250;2023-07-08T14:06:20;7.80;;;5.00;;
67272;SDS011;54190;49.770;9.250;2023-07-08T14:08:53;5.60;;;4.40;;
67272;SDS011;54190;49.770;9.250;2023-07-08T14:11:21;10.00;;;5.23;;
67272;SDS011;54190;49.770;9.250;2023-07-08T14:13:47;6.50;;;4.80;;
67272;SDS011;54190;49.770;9.250;2023-07-08T14:16:26;6.53;;;4.73;;
67272;SDS011;54190;49.770;9.250;2023-07-08T14:18:54;8.00;;;5.00;;
67272;SDS011;54190;49.770;9.250;2023-07-08T14:21:22;5.10;;;4.17;;
67272;SDS011;54190;49.770;9.250;2023-07-08T14:23:48;5.93;;;3.80;;
67272;SDS011;54190;49.770;9.250;2023-07-08T14:26:13;7.00;;;4.40;;
67272;SDS011;54190;49.770;9.250;2023-07-08T14:28:39;5.13;;;4.33;;
67272;SDS011;54190;49.770;9.250;2023-07-08T14:31:09;7.90;;;4.23;;
67272;SDS011;54190;49.770;9.250;2023-07-08T14:33:36;6.67;;;4.20;;
67272;SDS011;54190;49.770;9.250;2023-07-08T14:36:02;5.30;;;3.80;;
67272;SDS011;54190;49.770;9.250;2023-07-08T14:38:28;5.75;;;3.35;;
67272;SDS011;54190;49.770;9.250;2023-07-08T14:40:53;5.20;;;3.78;;
67272;SDS011;54190;49.770;9.250;2023-07-08T14:43:29;5.53;;;4.20;;
67272;SDS011;54190;49.770;9.250;2023-07-08T14:45:57;5.38;;;3.92;;
67272;SDS011;54190;49.770;9.250;2023-07-08T14:48:30;7.32;;;3.80;;
67272;SDS011;54190;49.770;9.250;2023-07-08T14:50:58;6.00;;;4.00;;
67272;SDS011;54190;49.770;9.250;2023-07-08T14:53:23;5.03;;;3.67;;
67272;SDS011;54190;49.770;9.250;2023-07-08T14:55:50;6.72;;;3.90;;
67272;SDS011;54190;49.770;9.250;2023-07-08T14:58:25;6.07;;;3.60;;
67272;SDS011;54190;49.770;9.250;2023-07-08T15:00:54;8.43;;;3.38;;
67272;SDS011;54190;49.770;9.250;2023-07-08T15:03:21;5.82;;;4.13;;
67272;SDS011;54190;49.770;9.250;2023-07-08T15:05:48;5.83;;;4.00;;
67272;SDS011;54190;49.770;9.250;2023-07-08T15:08:14;5.10;;;3.73;;
67272;SDS011;54190;49.770;9.250;2023-07-08T15:10:40;4.75;;;3.70;;
67272;SDS011;54190;49.770;9.250;2023-07-08T15:13:10;4.60;;;3.38;;
67272;SDS011;54190;49.770;9.250;2023-07-08T15:15:36;4.80;;;3.85;;
67272;SDS011;54190;49.770;9.250;2023-07-08T15:18:02;5.18;;;3.60;;
67272;SDS011;54190;49.770;9.250;2023-07-08T15:20:35;5.90;;;3.80;;
67272;SDS011;54190;49.770;9.250;2023-07-08T15:23:01;4.80;;;3.63;;
67272;SDS011;54190;49.770;9.250;2023-07-08T15:25:27;4.97;;;3.30;;
67272;SDS011;54190;49.770;9.250;2023-07-08T15:27:53;4.82;;;3.47;;
67272;SDS011;54190;49.770;9.250;2023-07-08T15:30:24;7.30;;;3.53;;
67272;SDS011;54190;49.770;9.250;2023-07-08T15:32:52;6.55;;;3.88;;
67272;SDS011;54190;49.770;9.250;2023-07-08T15:35:20;8.35;;;3.40;;
67272;SDS011;54190;49.770;9.250;2023-07-08T15:37:50;5.15;;;3.33;;
67272;SDS011;54190;49.770;9.250;2023-07-08T15:40:18;5.17;;;3.40;;
67272;SDS011;54190;49.770;9.250;2023-07-08T15:42:47;5.00;;;3.17;;
67272;SDS011;54190;49.770;9.250;2023-07-08T15:45:25;12.13;;;3.90;;
67272;SDS011;54190;49.770;9.250;2023-07-08T15:47:58;5.83;;;3.33;;
67272;SDS011;54190;49.770;9.250;2023-07-08T15:50:24;5.07;;;3.63;;